Am Qui, Tennessee
Current Conditions -  °F | °C
As of 2:53 PM on Saturday 25 Oct 2014 (Local Time) from KBNA Reporting Station
Scattered Clouds Scattered Clouds  
Wind Chill: 80°   Ceiling: Unl
Heat Index: 81°   Visibility: 10mi
Dew Point: 61°   Wind: 7mph
Humidity: 52%   Direction: 270°W
Pressure: 30"   Gusts: NA
Location:  36.2555°N, 86.6973°W
Report Text: KBNA 251953Z 27006KT 10SM FEW060 SCT250 27/16 A3000 RMK AO2 SLP153 T02670161
Loading
Personal Weather Stations






























Interactive Weather Map
Tropical Storm Tracking
New forecast layout! Learn more

10-Day Weather Forecast

Advertisements
Track Severe Weather on mobile